PDT,Max TemperatureF,Mean TemperatureF,Min TemperatureF,Max Dew PointF,MeanDew PointF,Min DewpointF,Max Humidity, Mean Humidity, Min Humidity, Max Sea Level PressureIn, Mean Sea Level PressureIn, Min Sea Level PressureIn, Max VisibilityMiles, Mean VisibilityMiles, Min VisibilityMiles, Max Wind SpeedMPH, Mean Wind SpeedMPH, Max Gust SpeedMPH,PrecipitationIn, CloudCover, Events, WindDirDegrees
2013-9-1,69,64,59,61,58,56,90,79,59,29.86,29.83,29.78,,,,16,3,,0.00,,,227
2013-9-2,68,66,63,60,59,55,89,79,65,29.91,29.87,29.83,,,,15,7,,0.00,,,138
2013-9-3,66,63,60,61,59,57,92,87,76,30.04,29.98,29.92,,,,10,6,,0.00,,,126
2013-9-4,72,65,58,61,59,58,96,85,55,30.07,30.04,30.01,,,,15,7,,0.00,,,308
2013-9-5,65,63,61,60,57,54,87,79,68,30.05,30.00,29.92,,,,20,12,,0.00,,,297
2013-9-6,68,64,61,60,57,55,84,77,65,30.05,29.99,29.91,,,,23,13,,0.00,,,253
2013-9-7,70,66,61,61,60,59,93,85,62,30.10,30.06,30.02,,,,13,7,,0.00,,,340
2013-9-8,73,68,62,60,59,57,91,79,57,30.10,30.06,30.01,,,,12,5,,0.00,,,308
2013-9-9,69,66,62,61,58,54,89,77,57,30.08,30.03,29.99,,,,14,6,,0.00,,,304
2013-9-10,70,64,59,59,56,53,83,75,65,30.03,29.99,29.92,,,,17,11,,0.00,,,310
2013-9-11,76,69,62,60,58,52,84,68,43,29.98,29.94,29.89,,,,13,7,,0.00,,,325
2013-9-12,75,70,64,62,59,53,89,70,50,29.97,29.92,29.86,,,,9,4,,0.00,,,322
2013-9-13,68,64,60,62,60,59,96,88,78,29.94,29.89,29.82,,,,15,9,,0.00,,,129
2013-9-14,62,60,59,60,58,58,95,93,89,29.87,29.82,29.75,,,,18,11,,0.00,,,132
2013-9-15,64,61,58,61,59,57,96,94,83,29.75,29.71,29.67,,,,22,4,18,0.00,,,39
2013-9-16,61,60,58,59,55,51,93,82,66,29.90,29.83,29.72,,,,18,12,,0.00,,,263
2013-9-17,64,60,57,54,52,50,84,74,57,29.88,29.86,29.82,,,,17,10,,0.00,,,274
2013-9-18,65,61,57,55,51,48,82,72,62,30.03,29.99,29.90,,,,20,11,,0.00,,,64
2013-9-19,65,62,58,54,51,47,81,69,43,30.01,29.86,29.70,,,,29,22,,0.00,,,121
2013-9-20,63,60,56,56,53,50,94,82,59,29.70,29.62,29.58,,,,29,15,,0.00,,,74
2013-9-21,60,57,54,55,54,51,94,86,72,29.68,29.64,29.60,,,,20,11,,0.00,,,138
2013-9-22,59,56,54,53,51,46,91,78,55,29.62,29.49,29.35,,,,43,20,52,0.00,,,128
2013-9-23,58,56,54,46,45,42,74,64,48,29.90,29.78,29.60,,,,23,14,,0.00,,,223
2013-9-24,55,52,50,49,46,43,85,77,62,29.91,29.87,29.84,,,,22,12,23,0.00,,,136
2013-9-25,60,55,50,48,46,45,82,71,47,30.00,29.95,29.89,,,,22,18,,0.00,,,307
2013-9-26,61,56,51,50,46,36,82,70,46,30.12,30.06,29.99,,,,23,14,,0.00,,,326
2013-9-27,56,53,50,52,49,46,89,85,79,30.04,29.91,29.76,,,,25,18,,0.00,,,117
2013-9-28,56,54,52,52,49,42,93,82,60,29.73,29.36,29.12,,,,44,26,51,0.00,,,125
2013-9-29,53,52,50,49,48,44,94,85,66,29.35,29.22,28.96,,,,52,25,63,0.00,,,120
2013-9-30,55,52,50,48,43,40,83,70,53,29.77,29.49,29.11,,,,31,20,40,0.00,,,156